createdAt,value
2022-09-12T00:01:04.578Z,13.60
2022-09-12T00:03:32.690Z,13.52
2022-09-12T00:06:00.590Z,13.46
2022-09-12T00:08:28.557Z,13.46
2022-09-12T00:10:56.445Z,13.52
2022-09-12T00:13:24.496Z,13.44
2022-09-12T00:15:52.354Z,13.46
2022-09-12T00:18:21.648Z,13.42
2022-09-12T00:20:49.573Z,13.37
2022-09-12T00:23:17.449Z,13.30
2022-09-12T00:25:47.775Z,13.28
2022-09-12T00:28:19.052Z,13.30
2022-09-12T00:30:49.365Z,13.20
2022-09-12T00:33:19.096Z,13.14
2022-09-12T00:35:52.324Z,13.13
2022-09-12T00:38:21.337Z,13.10
2022-09-12T00:40:50.292Z,13.13
2022-09-12T00:43:37.385Z,13.17
2022-09-12T00:46:12.079Z,13.29
2022-09-12T00:48:45.132Z,13.38
2022-09-12T00:51:15.248Z,13.49
2022-09-12T00:53:45.496Z,13.58
2022-09-12T00:56:16.733Z,13.60
2022-09-12T00:58:49.715Z,13.65
2022-09-12T01:01:17.988Z,13.61
2022-09-12T01:03:46.244Z,13.29
2022-09-12T01:06:22.438Z,13.50
2022-09-12T01:08:52.054Z,13.37
2022-09-12T01:11:21.926Z,13.17
2022-09-12T01:13:51.711Z,13.28
2022-09-12T01:16:20.080Z,13.34
2022-09-12T01:19:03.170Z,13.36
2022-09-12T01:21:43.133Z,13.32
2022-09-12T01:24:38.853Z,13.22
2022-09-12T01:27:34.479Z,13.13
2022-09-12T01:30:23.484Z,13.03
2022-09-12T01:33:03.991Z,13.04
2022-09-12T01:35:38.260Z,12.94
2022-09-12T01:38:12.787Z,12.95
2022-09-12T01:40:49.068Z,13.01
2022-09-12T01:43:26.726Z,13.11
2022-09-12T01:46:02.767Z,13.22
2022-09-12T01:48:35.806Z,13.13
2022-09-12T01:51:12.424Z,12.96
2022-09-12T01:53:45.275Z,12.81
2022-09-12T01:56:20.184Z,12.69
2022-09-12T01:58:52.374Z,12.66
2022-09-12T02:01:27.015Z,12.71
2022-09-12T02:04:03.847Z,12.81
2022-09-12T02:06:36.291Z,12.94
2022-09-12T02:09:09.893Z,12.89
2022-09-12T02:11:42.886Z,12.85
2022-09-12T02:14:16.739Z,13.05
2022-09-12T02:16:49.491Z,12.93
2022-09-12T02:19:21.327Z,12.99
2022-09-12T02:21:52.974Z,12.91
2022-09-12T02:24:23.137Z,12.88
2022-09-12T02:26:55.780Z,12.79
2022-09-12T02:29:23.712Z,12.79
2022-09-12T02:31:58.942Z,12.70
2022-09-12T02:34:39.877Z,12.79
2022-09-12T02:37:15.555Z,12.79
2022-09-12T02:39:45.463Z,12.85
2022-09-12T02:42:14.631Z,12.83
2022-09-12T02:44:43.528Z,12.87
2022-09-12T02:47:18.428Z,12.82
2022-09-12T02:49:46.633Z,12.80
2022-09-12T02:52:14.594Z,12.77
2022-09-12T02:54:44.164Z,12.74
2022-09-12T02:57:22.361Z,12.71
2022-09-12T02:59:54.466Z,12.44
2022-09-12T03:02:31.386Z,12.59
2022-09-12T03:05:13.043Z,12.66
2022-09-12T03:08:00.159Z,12.65
2022-09-12T03:10:35.977Z,12.65
2022-09-12T03:13:16.621Z,12.71
2022-09-12T03:15:55.308Z,12.71
2022-09-12T03:18:43.365Z,12.65
2022-09-12T03:21:19.189Z,12.65
2022-09-12T03:24:06.688Z,12.53
2022-09-12T03:26:42.569Z,12.56
2022-09-12T03:29:12.936Z,12.51
2022-09-12T03:31:50.220Z,12.51
2022-09-12T03:34:19.895Z,12.40
2022-09-12T03:36:48.540Z,12.45
2022-09-12T03:39:16.727Z,12.45
2022-09-12T03:41:44.699Z,12.38
2022-09-12T03:44:12.693Z,12.35
2022-09-12T03:46:40.594Z,12.34
2022-09-12T03:49:08.511Z,12.26
2022-09-12T03:51:37.905Z,12.36
2022-09-12T03:54:06.277Z,12.20
2022-09-12T03:56:34.494Z,12.55
2022-09-12T03:59:02.634Z,12.68
2022-09-12T04:01:30.674Z,12.70
2022-09-12T04:03:58.683Z,12.60
2022-09-12T04:06:26.699Z,12.58
2022-09-12T04:08:56.487Z,12.54
2022-09-12T04:11:24.771Z,12.49
2022-09-12T04:13:52.866Z,12.54
2022-09-12T04:16:21.131Z,12.62
2022-09-12T04:18:49.134Z,12.52
2022-09-12T04:21:19.409Z,12.46
2022-09-12T04:23:47.346Z,12.35
2022-09-12T04:26:18.400Z,12.28
2022-09-12T04:28:47.351Z,12.24
2022-09-12T04:31:17.805Z,12.27
2022-09-12T04:33:46.761Z,12.35
2022-09-12T04:36:16.819Z,12.38
2022-09-12T04:38:46.380Z,12.35
2022-09-12T04:41:17.873Z,12.37
2022-09-12T04:43:47.430Z,12.46
2022-09-12T04:46:19.787Z,12.39
2022-09-12T04:48:51.357Z,12.39
2022-09-12T04:51:25.944Z,12.36
2022-09-12T04:53:55.782Z,12.30
2022-09-12T04:56:25.893Z,12.31
2022-09-12T04:58:53.914Z,12.28
2022-09-12T05:01:23.741Z,12.11
2022-09-12T05:03:52.322Z,12.13
2022-09-12T05:06:22.686Z,12.13
2022-09-12T05:08:51.233Z,12.13
2022-09-12T05:11:24.715Z,12.27
2022-09-12T05:13:56.285Z,12.33
2022-09-12T05:16:25.862Z,12.28
2022-09-12T05:18:53.861Z,12.32
2022-09-12T05:21:23.715Z,12.36
2022-09-12T05:23:52.992Z,12.39
2022-09-12T05:26:22.903Z,12.49
2022-09-12T05:28:52.576Z,12.62
2022-09-12T05:31:24.163Z,12.76
2022-09-12T05:33:53.765Z,12.84
2022-09-12T05:36:23.934Z,13.00
2022-09-12T05:38:52.141Z,13.37
2022-09-12T05:41:24.960Z,13.60
2022-09-12T05:43:54.254Z,13.51
2022-09-12T05:46:26.281Z,13.50
2022-09-12T05:48:56.685Z,13.56
2022-09-12T05:51:27.230Z,13.76
2022-09-12T05:53:56.676Z,13.91
2022-09-12T05:56:27.305Z,14.04
2022-09-12T05:58:57.045Z,14.13
2022-09-12T06:01:28.092Z,14.12
2022-09-12T06:03:57.839Z,14.42
2022-09-12T06:06:27.677Z,14.71
2022-09-12T06:08:59.408Z,14.57
2022-09-12T06:11:29.365Z,14.58
2022-09-12T06:13:58.489Z,14.67
2022-09-12T06:16:29.801Z,14.77
2022-09-12T06:19:00.651Z,14.91
2022-09-12T06:21:30.715Z,15.47
2022-09-12T06:23:59.734Z,15.86
2022-09-12T06:26:29.580Z,15.70
2022-09-12T06:29:00.360Z,16.17
2022-09-12T06:31:31.651Z,16.61
2022-09-12T06:34:01.895Z,16.35
2022-09-12T06:36:32.607Z,16.74
2022-09-12T06:39:03.330Z,16.38
2022-09-12T06:41:32.522Z,16.44
2022-09-12T06:44:01.935Z,16.32
2022-09-12T06:46:32.124Z,16.32
2022-09-12T06:49:01.634Z,17.75
2022-09-12T06:51:29.949Z,17.84
2022-09-12T06:53:58.972Z,17.44
2022-09-12T06:56:29.637Z,17.16
2022-09-12T06:58:59.358Z,17.37
2022-09-12T07:01:29.275Z,19.26
2022-09-12T07:04:00.338Z,18.49
2022-09-12T07:06:31.842Z,18.22
2022-09-12T07:09:01.127Z,19.61
2022-09-12T07:11:31.771Z,22.91
2022-09-12T07:14:01.303Z,24.14
2022-09-12T07:16:30.321Z,22.43
2022-09-12T07:19:01.896Z,20.54
2022-09-12T07:21:30.884Z,20.16
2022-09-12T07:23:59.189Z,19.67
2022-09-12T07:26:28.237Z,19.79
2022-09-12T07:29:12.898Z,21.10
2022-09-12T07:31:45.932Z,22.89
2022-09-12T07:34:22.735Z,23.61
2022-09-12T07:36:50.732Z,22.01
2022-09-12T07:39:18.915Z,21.95
2022-09-12T07:41:47.056Z,22.02
2022-09-12T07:44:23.905Z,23.30
2022-09-12T07:46:55.034Z,23.69
2022-09-12T07:49:27.461Z,22.03
2022-09-12T07:51:55.469Z,21.00
2022-09-12T07:54:23.926Z,20.37
2022-09-12T07:56:51.895Z,20.06
2022-09-12T07:59:41.547Z,20.10
2022-09-12T08:02:16.757Z,19.96
2022-09-12T08:04:48.011Z,20.08
2022-09-12T08:07:18.269Z,20.09
2022-09-12T08:09:46.433Z,20.16
2022-09-12T08:12:14.887Z,20.23
2022-09-12T08:14:43.003Z,20.81
2022-09-12T08:17:11.109Z,22.75
2022-09-12T08:19:39.438Z,24.89
2022-09-12T08:22:09.810Z,26.42
2022-09-12T08:24:39.167Z,26.00
2022-09-12T08:27:09.311Z,23.98
2022-09-12T08:29:37.352Z,22.39
2022-09-12T08:32:05.373Z,21.81
2022-09-12T08:34:33.632Z,21.71
2022-09-12T08:37:01.806Z,21.76
2022-09-12T08:39:31.305Z,22.06
2022-09-12T08:42:03.125Z,22.02
2022-09-12T08:44:50.660Z,22.14
2022-09-12T08:47:28.308Z,22.11
2022-09-12T08:50:07.639Z,22.17
2022-09-12T08:52:43.656Z,22.34
2022-09-12T08:55:28.571Z,22.12
2022-09-12T08:57:56.681Z,22.09
2022-09-12T09:00:26.659Z,22.23
2022-09-12T09:03:11.793Z,22.19
2022-09-12T09:05:47.193Z,22.29
2022-09-12T09:08:45.906Z,22.39
2022-09-12T09:11:28.004Z,22.82
2022-09-12T09:14:28.638Z,23.07
2022-09-12T09:16:58.713Z,23.13
2022-09-12T09:19:31.684Z,22.70
2022-09-12T09:22:02.150Z,22.63
2022-09-12T09:24:37.999Z,22.87
2022-09-12T09:27:36.946Z,23.28
2022-09-12T09:30:03.423Z,23.40
2022-09-12T09:32:36.485Z,23.42
2022-09-12T09:35:16.547Z,23.43
2022-09-12T09:38:01.618Z,23.25
2022-09-12T09:40:39.282Z,23.58
2022-09-12T09:43:18.423Z,23.53
2022-09-12T09:45:47.985Z,23.38
2022-09-12T09:48:19.403Z,23.50
2022-09-12T09:50:50.134Z,23.77
2022-09-12T09:53:30.596Z,23.89
2022-09-12T09:56:03.374Z,24.32
2022-09-12T09:58:37.156Z,24.70
2022-09-12T10:01:07.224Z,24.25
2022-09-12T10:03:39.033Z,23.88
2022-09-12T10:06:25.370Z,24.37
2022-09-12T10:09:06.361Z,24.63
2022-09-12T10:11:34.697Z,24.81
2022-09-12T10:14:04.693Z,25.19
2022-09-12T10:16:52.367Z,24.69
2022-09-12T10:19:24.731Z,24.65
2022-09-12T10:21:55.604Z,24.84
2022-09-12T10:24:27.139Z,24.51
2022-09-12T10:26:58.079Z,24.55
2022-09-12T10:29:31.434Z,24.38
2022-09-12T10:32:02.297Z,24.31
2022-09-12T10:34:35.941Z,24.75
2022-09-12T10:37:07.793Z,24.59
2022-09-12T10:39:38.561Z,24.57
2022-09-12T10:42:07.247Z,24.50
2022-09-12T10:44:36.591Z,24.51
2022-09-12T10:47:23.186Z,24.40
2022-09-12T10:49:51.221Z,24.61
2022-09-12T10:52:24.176Z,24.61
2022-09-12T10:54:52.224Z,24.91
2022-09-12T10:57:50.318Z,25.24
2022-09-12T11:00:27.579Z,25.00
2022-09-12T11:03:16.357Z,24.72
2022-09-12T11:05:54.380Z,24.66
2022-09-12T11:08:42.032Z,24.78
2022-09-12T11:11:21.612Z,24.82
2022-09-12T11:14:06.261Z,24.96
2022-09-12T11:16:43.180Z,24.98
2022-09-12T11:19:29.002Z,25.09
2022-09-12T11:22:15.683Z,25.22
2022-09-12T11:25:15.098Z,25.26
2022-09-12T11:27:49.926Z,25.03
2022-09-12T11:30:19.199Z,25.17
2022-09-12T11:33:23.396Z,25.39
2022-09-12T11:35:55.474Z,25.60
2022-09-12T11:38:40.178Z,25.68
2022-09-12T11:41:12.598Z,25.74
2022-09-12T11:43:44.634Z,25.74
2022-09-12T11:46:20.305Z,25.43
2022-09-12T11:48:56.268Z,25.67
2022-09-12T11:51:28.647Z,25.34
2022-09-12T11:54:13.150Z,25.46
2022-09-12T11:56:46.489Z,25.30
2022-09-12T11:59:25.739Z,25.19
2022-09-12T12:01:59.584Z,25.24
2022-09-12T12:04:38.159Z,25.21
2022-09-12T12:07:08.959Z,25.67
2022-09-12T12:09:37.604Z,25.56
2022-09-12T12:12:10.139Z,25.71
2022-09-12T12:14:44.209Z,25.30
2022-09-12T12:17:17.510Z,25.43
2022-09-12T12:19:48.334Z,25.55
2022-09-12T12:22:19.258Z,25.40
2022-09-12T12:25:03.322Z,25.43
2022-09-12T12:27:50.095Z,25.85
2022-09-12T12:30:57.542Z,25.81
2022-09-12T12:34:02.199Z,25.74
2022-09-12T12:36:35.981Z,25.80
2022-09-12T12:39:46.856Z,26.09
2022-09-12T12:42:58.892Z,26.05
2022-09-12T12:46:12.991Z,25.90
2022-09-12T12:49:09.487Z,25.68
2022-09-12T12:51:44.381Z,25.74
2022-09-12T12:54:48.962Z,25.66
2022-09-12T12:57:20.795Z,25.77
2022-09-12T12:59:52.758Z,25.67
2022-09-12T13:02:25.219Z,25.78
2022-09-12T13:04:54.467Z,26.33
2022-09-12T13:07:29.799Z,25.98
2022-09-12T13:10:00.746Z,25.52
2022-09-12T13:12:31.796Z,25.41
2022-09-12T13:15:01.064Z,25.52
2022-09-12T13:17:46.802Z,25.58
2022-09-12T13:20:30.093Z,25.09
2022-09-12T13:23:00.547Z,25.08
2022-09-12T13:25:31.331Z,24.64
2022-09-12T13:28:06.189Z,24.44
2022-09-12T13:30:36.019Z,24.56
2022-09-12T13:33:19.354Z,24.84
2022-09-12T13:36:29.627Z,24.87
2022-09-12T13:39:21.522Z,24.83
2022-09-12T13:42:31.085Z,24.97
2022-09-12T13:45:03.575Z,25.02
2022-09-12T13:47:35.666Z,24.79
2022-09-12T13:50:05.083Z,24.64
2022-09-12T13:52:35.816Z,24.75
2022-09-12T13:55:09.200Z,24.76
2022-09-12T13:57:38.875Z,24.76
2022-09-12T14:00:19.367Z,24.74
2022-09-12T14:03:11.373Z,24.79
2022-09-12T14:05:40.996Z,24.78
2022-09-12T14:08:10.227Z,25.50
2022-09-12T14:10:41.591Z,26.20
2022-09-12T14:13:13.757Z,26.53
2022-09-12T14:15:46.630Z,27.14
2022-09-12T14:18:24.933Z,27.82
2022-09-12T14:20:54.071Z,28.11
2022-09-12T14:23:28.468Z,28.08
2022-09-12T14:26:00.031Z,27.72
2022-09-12T14:28:30.243Z,28.12
2022-09-12T14:31:00.695Z,27.71
2022-09-12T14:33:29.571Z,27.64
2022-09-12T14:36:16.906Z,27.51
2022-09-12T14:38:48.301Z,27.29
2022-09-12T14:41:24.898Z,27.18
2022-09-12T14:43:56.279Z,26.91
2022-09-12T14:46:28.458Z,26.83
2022-09-12T14:49:02.221Z,26.43
2022-09-12T14:51:34.654Z,26.48
2022-09-12T14:54:02.750Z,26.69
2022-09-12T14:56:43.513Z,26.73
2022-09-12T14:59:37.583Z,26.46
2022-09-12T15:02:24.326Z,26.78
2022-09-12T15:04:54.236Z,26.70
2022-09-12T15:07:32.322Z,26.63
2022-09-12T15:10:02.581Z,26.18
2022-09-12T15:12:32.077Z,26.07
2022-09-12T15:15:10.965Z,26.24
2022-09-12T15:17:38.793Z,26.16
2022-09-12T15:20:07.928Z,26.29
2022-09-12T15:22:37.189Z,26.04
2022-09-12T15:25:06.540Z,25.80
2022-09-12T15:27:36.107Z,25.82
2022-09-12T15:30:04.856Z,25.69
2022-09-12T15:32:32.868Z,25.54
2022-09-12T15:35:00.847Z,25.06
2022-09-12T15:37:28.931Z,25.04
2022-09-12T15:39:57.013Z,25.25
2022-09-12T15:42:29.300Z,25.28
2022-09-12T15:45:02.636Z,25.33
2022-09-12T15:47:31.299Z,25.05
2022-09-12T15:49:59.286Z,24.85
2022-09-12T15:52:27.281Z,24.59
2022-09-12T15:54:55.267Z,24.56
2022-09-12T15:57:23.214Z,24.70
2022-09-12T15:59:53.107Z,24.28
2022-09-12T16:02:22.609Z,24.21
2022-09-12T16:04:54.562Z,24.16
2022-09-12T16:07:22.687Z,24.31
2022-09-12T16:09:51.017Z,24.40
2022-09-12T16:12:19.023Z,24.23
2022-09-12T16:14:47.006Z,24.10
2022-09-12T16:17:15.014Z,24.10
2022-09-12T16:19:44.249Z,24.07
2022-09-12T16:22:12.250Z,23.99
2022-09-12T16:24:40.359Z,23.96
2022-09-12T16:27:08.441Z,23.80
2022-09-12T16:29:36.592Z,23.69
2022-09-12T16:32:04.756Z,23.70
2022-09-12T16:34:32.887Z,23.59
2022-09-12T16:37:02.785Z,23.49
2022-09-12T16:39:30.792Z,23.47
2022-09-12T16:41:58.885Z,23.44
2022-09-12T16:44:26.895Z,23.35
2022-09-12T16:46:55.429Z,23.39
2022-09-12T16:49:23.439Z,23.33
2022-09-12T16:51:51.342Z,23.15
2022-09-12T16:54:21.011Z,23.12
2022-09-12T16:56:49.928Z,23.14
2022-09-12T16:59:19.761Z,23.02
2022-09-12T17:01:47.898Z,22.99
2022-09-12T17:04:15.920Z,22.93
2022-09-12T17:06:44.080Z,22.78
2022-09-12T17:09:16.280Z,22.71
2022-09-12T17:11:47.787Z,22.64
2022-09-12T17:14:15.778Z,22.62
2022-09-12T17:16:51.439Z,22.56
2022-09-12T17:19:25.574Z,22.46
2022-09-12T17:21:54.013Z,22.43
2022-09-12T17:24:23.027Z,22.29
2022-09-12T17:26:53.580Z,22.21
2022-09-12T17:29:22.156Z,22.13
2022-09-12T17:31:50.253Z,22.05
2022-09-12T17:34:18.621Z,21.91
2022-09-12T17:36:48.457Z,21.79
2022-09-12T17:39:16.794Z,21.72
2022-09-12T17:41:45.943Z,21.61
2022-09-12T17:44:16.029Z,21.51
2022-09-12T17:46:44.494Z,21.48
2022-09-12T17:49:15.507Z,21.31
2022-09-12T17:51:44.571Z,21.20
2022-09-12T17:54:14.012Z,21.17
2022-09-12T17:56:42.716Z,21.08
2022-09-12T17:59:16.899Z,21.05
2022-09-12T18:02:11.167Z,21.01
2022-09-12T18:04:39.278Z,20.74
2022-09-12T18:07:08.302Z,20.78
2022-09-12T18:09:37.265Z,20.77
2022-09-12T18:12:06.397Z,20.57
2022-09-12T18:14:35.822Z,20.44
2022-09-12T18:17:04.624Z,20.35
2022-09-12T18:19:32.589Z,20.31
2022-09-12T18:22:02.544Z,20.28
2022-09-12T18:24:30.519Z,20.17
2022-09-12T18:26:59.143Z,20.07
2022-09-12T18:29:27.987Z,20.05
2022-09-12T18:31:57.447Z,19.87
2022-09-12T18:34:25.612Z,19.87
2022-09-12T18:36:54.894Z,19.81
2022-09-12T18:39:27.471Z,19.79
2022-09-12T18:41:56.396Z,19.67
2022-09-12T18:44:24.461Z,19.67
2022-09-12T18:46:52.840Z,19.57
2022-09-12T18:49:22.500Z,19.46
2022-09-12T18:51:50.834Z,19.33
2022-09-12T18:54:19.355Z,19.30
2022-09-12T18:56:47.695Z,19.22
2022-09-12T18:59:15.973Z,19.20
2022-09-12T19:01:44.785Z,19.14
2022-09-12T19:04:14.243Z,19.13
2022-09-12T19:06:45.415Z,19.06
2022-09-12T19:09:18.131Z,19.02
2022-09-12T19:11:50.114Z,18.98
2022-09-12T19:14:20.487Z,18.95
2022-09-12T19:16:48.644Z,18.92
2022-09-12T19:19:16.816Z,18.88
2022-09-12T19:21:48.045Z,18.83
2022-09-12T19:24:17.109Z,18.79
2022-09-12T19:26:45.547Z,18.70
2022-09-12T19:29:14.660Z,18.66
2022-09-12T19:31:42.820Z,18.64
2022-09-12T19:34:12.205Z,18.52
2022-09-12T19:36:45.738Z,18.45
2022-09-12T19:39:17.641Z,18.38
2022-09-12T19:41:46.345Z,18.38
2022-09-12T19:44:14.715Z,18.37
2022-09-12T19:46:42.959Z,18.33
2022-09-12T19:49:12.687Z,18.27
2022-09-12T19:51:41.079Z,18.25
2022-09-12T19:54:09.586Z,18.21
2022-09-12T19:56:39.580Z,18.14
2022-09-12T19:59:07.582Z,18.12
2022-09-12T20:01:37.132Z,18.07
2022-09-12T20:04:06.706Z,18.03
2022-09-12T20:06:34.916Z,18.02
2022-09-12T20:09:03.088Z,17.94
2022-09-12T20:11:31.454Z,17.89
2022-09-12T20:14:01.090Z,17.88
2022-09-12T20:16:30.063Z,17.92
2022-09-12T20:19:01.384Z,17.86
2022-09-12T20:21:32.910Z,17.91
2022-09-12T20:24:03.044Z,17.87
2022-09-12T20:26:31.128Z,17.82
2022-09-12T20:29:00.758Z,17.80
2022-09-12T20:31:28.900Z,17.78
2022-09-12T20:33:57.109Z,17.78
2022-09-12T20:36:25.093Z,17.76
2022-09-12T20:38:56.680Z,17.73
2022-09-12T20:41:25.822Z,17.67
2022-09-12T20:43:54.853Z,17.66
2022-09-12T20:46:25.107Z,17.65
2022-09-12T20:48:53.653Z,17.58
2022-09-12T20:51:22.798Z,17.58
2022-09-12T20:53:54.537Z,17.60
2022-09-12T20:56:23.141Z,17.56
2022-09-12T20:58:51.538Z,17.52
2022-09-12T21:01:19.610Z,17.54
2022-09-12T21:03:49.636Z,17.44
2022-09-12T21:06:18.519Z,17.49
2022-09-12T21:08:47.403Z,17.50
2022-09-12T21:11:15.755Z,17.49
2022-09-12T21:13:44.105Z,17.41
2022-09-12T21:16:14.028Z,17.38
2022-09-12T21:18:42.811Z,17.44
2022-09-12T21:21:14.175Z,17.40
2022-09-12T21:23:42.546Z,17.35
2022-09-12T21:26:10.660Z,17.28
2022-09-12T21:28:38.735Z,17.27
2022-09-12T21:31:06.959Z,17.25
2022-09-12T21:33:35.021Z,17.17
2022-09-12T21:36:04.479Z,17.14
2022-09-12T21:38:34.262Z,17.10
2022-09-12T21:41:07.465Z,17.12
2022-09-12T21:43:35.408Z,17.17
2022-09-12T21:46:04.290Z,17.14
2022-09-12T21:48:32.956Z,17.09
2022-09-12T21:51:01.675Z,17.04
2022-09-12T21:53:30.077Z,17.05
2022-09-12T21:56:03.757Z,17.07
2022-09-12T21:58:31.749Z,17.02
2022-09-12T22:01:00.958Z,17.01
2022-09-12T22:03:29.887Z,16.99
2022-09-12T22:05:58.712Z,17.00
2022-09-12T22:08:27.084Z,17.00
2022-09-12T22:10:59.487Z,16.96
2022-09-12T22:13:32.096Z,16.98
2022-09-12T22:16:03.485Z,16.96
2022-09-12T22:18:34.538Z,16.98
2022-09-12T22:21:05.023Z,16.98
2022-09-12T22:24:05.430Z,16.98
2022-09-12T22:26:41.919Z,16.97
2022-09-12T22:29:13.261Z,16.95
2022-09-12T22:31:41.672Z,16.95
2022-09-12T22:34:09.731Z,16.95
2022-09-12T22:36:39.159Z,17.03
2022-09-12T22:39:07.444Z,17.05
2022-09-12T22:41:35.436Z,17.02
2022-09-12T22:44:03.514Z,16.79
2022-09-12T22:46:33.248Z,17.10
2022-09-12T22:49:01.460Z,16.95
2022-09-12T22:51:29.396Z,17.03
2022-09-12T22:53:57.436Z,17.01
2022-09-12T22:56:25.838Z,17.02
2022-09-12T22:58:54.584Z,16.96
2022-09-12T23:01:23.748Z,17.05
2022-09-12T23:03:53.051Z,17.12
2022-09-12T23:06:21.236Z,17.16
2022-09-12T23:08:49.177Z,17.11
2022-09-12T23:11:20.878Z,17.09
2022-09-12T23:13:50.567Z,17.09
2022-09-12T23:16:20.832Z,17.15
2022-09-12T23:18:49.655Z,17.17
2022-09-12T23:21:21.718Z,17.13
2022-09-12T23:23:50.097Z,17.15
2022-09-12T23:26:20.772Z,17.13
2022-09-12T23:28:50.366Z,17.12
2022-09-12T23:31:18.708Z,17.13
2022-09-12T23:33:47.160Z,17.11
2022-09-12T23:36:15.233Z,17.12
2022-09-12T23:38:46.165Z,17.17
2022-09-12T23:41:16.020Z,17.14
2022-09-12T23:43:45.468Z,17.14
2022-09-12T23:46:14.722Z,17.06
2022-09-12T23:48:43.696Z,16.95
2022-09-12T23:51:12.468Z,17.07
2022-09-12T23:53:40.584Z,17.01
2022-09-12T23:56:09.913Z,17.00
2022-09-12T23:58:38.174Z,16.99
